createdAt,value
2022-11-20T00:01:54.715Z,19.97
2022-11-20T00:04:23.372Z,20.40
2022-11-20T00:06:53.443Z,20.60
2022-11-20T00:09:22.998Z,16.27
2022-11-20T00:11:51.833Z,18.10
2022-11-20T00:14:20.611Z,21.63
2022-11-20T00:16:49.238Z,21.13
2022-11-20T00:19:18.288Z,20.37
2022-11-20T00:21:47.240Z,18.17
2022-11-20T00:24:17.267Z,20.60
2022-11-20T00:26:45.901Z,21.67
2022-11-20T00:29:14.721Z,19.17
2022-11-20T00:31:43.404Z,19.13
2022-11-20T00:34:12.350Z,18.40
2022-11-20T00:36:40.966Z,17.90
2022-11-20T00:39:09.606Z,18.37
2022-11-20T00:41:39.717Z,19.23
2022-11-20T00:44:08.345Z,20.47
2022-11-20T00:46:37.431Z,17.93
2022-11-20T00:49:06.059Z,20.20
2022-11-20T00:51:34.721Z,21.37
2022-11-20T00:54:03.929Z,21.50
2022-11-20T00:56:32.571Z,23.33
2022-11-20T00:59:03.572Z,21.03
2022-11-20T01:01:32.351Z,20.83
2022-11-20T01:04:02.307Z,18.90
2022-11-20T01:06:32.351Z,22.60
2022-11-20T01:09:02.736Z,21.10
2022-11-20T01:11:33.004Z,21.00
2022-11-20T01:14:05.220Z,20.27
2022-11-20T01:16:35.175Z,21.27
2022-11-20T01:19:06.324Z,20.37
2022-11-20T01:21:36.899Z,18.20
2022-11-20T01:24:07.965Z,18.70
2022-11-20T01:26:39.144Z,21.10
2022-11-20T01:29:12.864Z,17.37
2022-11-20T01:31:41.620Z,18.57
2022-11-20T01:34:13.162Z,18.33
2022-11-20T01:36:43.704Z,18.10
2022-11-20T01:39:15.343Z,17.77
2022-11-20T01:42:05.683Z,18.93
2022-11-20T01:44:56.639Z,16.33
2022-11-20T01:47:31.036Z,19.50
2022-11-20T01:50:03.064Z,18.83
2022-11-20T01:52:36.039Z,16.83
2022-11-20T01:55:08.674Z,17.20
2022-11-20T01:57:38.027Z,19.17
2022-11-20T02:00:11.143Z,17.13
2022-11-20T02:02:41.418Z,18.03
2022-11-20T02:05:19.768Z,18.93
2022-11-20T02:07:50.323Z,17.17
2022-11-20T02:10:19.140Z,20.67
2022-11-20T02:13:05.355Z,18.47
2022-11-20T02:15:36.755Z,18.90
2022-11-20T02:18:06.308Z,17.90
2022-11-20T02:20:35.587Z,15.33
2022-11-20T02:23:10.679Z,16.20
2022-11-20T02:25:41.635Z,16.40
2022-11-20T02:28:10.599Z,17.60
2022-11-20T02:30:39.240Z,17.57
2022-11-20T02:33:07.854Z,16.57
2022-11-20T02:35:45.415Z,16.80
2022-11-20T02:38:14.955Z,17.00
2022-11-20T02:40:45.204Z,17.97
2022-11-20T02:43:13.898Z,17.90
2022-11-20T02:45:42.590Z,17.53
2022-11-20T02:48:11.280Z,16.73
2022-11-20T02:50:41.363Z,17.07
2022-11-20T02:53:10.027Z,16.27
2022-11-20T02:55:38.910Z,18.30
2022-11-20T02:58:09.127Z,18.53
2022-11-20T03:00:37.795Z,17.17
2022-11-20T03:03:06.427Z,17.50
2022-11-20T03:05:35.050Z,16.93
2022-11-20T03:08:03.919Z,15.37
2022-11-20T03:10:32.665Z,17.10
2022-11-20T03:13:01.337Z,16.30
2022-11-20T03:15:31.331Z,17.00
2022-11-20T03:18:00.069Z,16.33
2022-11-20T03:20:28.713Z,15.87
2022-11-20T03:22:57.368Z,17.80
2022-11-20T03:25:25.969Z,16.50
2022-11-20T03:27:54.647Z,18.10
2022-11-20T03:30:27.619Z,15.03
2022-11-20T03:33:00.783Z,16.97
2022-11-20T03:35:29.439Z,15.67
2022-11-20T03:37:59.151Z,16.00
2022-11-20T03:40:27.786Z,15.00
2022-11-20T03:42:56.392Z,15.33
2022-11-20T03:45:24.984Z,16.60
2022-11-20T03:47:53.752Z,16.50
2022-11-20T03:50:23.780Z,15.20
2022-11-20T03:52:52.435Z,14.17
2022-11-20T03:55:21.054Z,15.30
2022-11-20T03:57:49.702Z,13.97
2022-11-20T04:00:18.675Z,16.27
2022-11-20T04:02:47.623Z,14.80
2022-11-20T04:05:16.382Z,13.10
2022-11-20T04:07:46.376Z,13.43
2022-11-20T04:10:14.996Z,13.80
2022-11-20T04:12:43.604Z,15.80
2022-11-20T04:15:12.639Z,13.77
2022-11-20T04:17:41.233Z,15.57
2022-11-20T04:20:10.508Z,14.40
2022-11-20T04:22:39.114Z,13.77
2022-11-20T04:25:10.060Z,14.40
2022-11-20T04:27:38.669Z,15.30
2022-11-20T04:30:08.327Z,14.87
2022-11-20T04:32:36.936Z,13.20
2022-11-20T04:35:05.902Z,13.83
2022-11-20T04:37:34.744Z,14.00
2022-11-20T04:40:03.372Z,16.17
2022-11-20T04:42:33.387Z,14.97
2022-11-20T04:45:01.965Z,15.77
2022-11-20T04:47:30.557Z,15.70
2022-11-20T04:49:59.196Z,13.27
2022-11-20T04:52:27.860Z,15.27
2022-11-20T04:54:56.639Z,15.93
2022-11-20T04:57:25.317Z,14.40
2022-11-20T04:59:55.338Z,15.37
2022-11-20T05:02:24.695Z,14.20
2022-11-20T05:04:53.403Z,13.17
2022-11-20T05:07:22.046Z,15.67
2022-11-20T05:09:51.023Z,12.47
2022-11-20T05:12:19.650Z,12.83
2022-11-20T05:14:48.267Z,14.47
2022-11-20T05:17:18.340Z,13.97
2022-11-20T05:19:50.643Z,12.77
2022-11-20T05:22:21.726Z,15.20
2022-11-20T05:24:50.368Z,13.17
2022-11-20T05:27:19.004Z,15.80
2022-11-20T05:29:47.666Z,14.07
2022-11-20T05:32:17.704Z,14.07
2022-11-20T05:34:46.342Z,15.10
2022-11-20T05:37:14.978Z,13.17
2022-11-20T05:39:43.636Z,15.00
2022-11-20T05:42:29.437Z,13.73
2022-11-20T05:44:58.165Z,14.40
2022-11-20T05:47:28.619Z,14.67
2022-11-20T05:49:57.332Z,13.43
2022-11-20T05:52:26.007Z,14.23
2022-11-20T05:54:54.669Z,13.17
2022-11-20T05:57:23.261Z,15.40
2022-11-20T05:59:51.885Z,13.07
2022-11-20T06:02:20.536Z,12.80
2022-11-20T06:04:50.579Z,15.27
2022-11-20T06:07:19.333Z,13.70
2022-11-20T06:09:47.977Z,15.27
2022-11-20T06:12:16.601Z,13.07
2022-11-20T06:14:45.291Z,14.07
2022-11-20T06:17:13.855Z,14.70
2022-11-20T06:19:42.473Z,13.40
2022-11-20T06:22:12.517Z,16.27
2022-11-20T06:24:41.234Z,12.87
2022-11-20T06:27:09.905Z,14.57
2022-11-20T06:29:38.511Z,13.50
2022-11-20T06:32:07.302Z,13.90
2022-11-20T06:34:35.967Z,12.60
2022-11-20T06:37:04.647Z,14.07
2022-11-20T06:39:34.714Z,13.20
2022-11-20T06:42:03.539Z,12.97
2022-11-20T06:44:32.155Z,14.73
2022-11-20T06:47:00.806Z,12.73
2022-11-20T06:49:29.417Z,15.87
2022-11-20T06:51:58.167Z,11.93
2022-11-20T06:54:27.384Z,14.67
2022-11-20T06:56:57.377Z,14.80
2022-11-20T06:59:26.051Z,14.83
2022-11-20T07:01:54.720Z,13.07
2022-11-20T07:04:23.352Z,14.07
2022-11-20T07:06:51.988Z,14.63
2022-11-20T07:09:20.770Z,15.80
2022-11-20T07:11:49.639Z,15.13
2022-11-20T07:14:19.969Z,15.20
2022-11-20T07:16:48.679Z,16.30
2022-11-20T07:19:17.476Z,15.27
2022-11-20T07:21:46.268Z,16.47
2022-11-20T07:24:14.883Z,16.70
2022-11-20T07:26:43.666Z,16.60
2022-11-20T07:29:12.392Z,15.30
2022-11-20T07:31:42.500Z,15.57
2022-11-20T07:34:11.246Z,15.03
2022-11-20T07:36:40.006Z,17.97
2022-11-20T07:39:08.778Z,17.20
2022-11-20T07:41:37.612Z,17.87
2022-11-20T07:44:07.051Z,17.40
2022-11-20T07:46:36.347Z,16.27
2022-11-20T07:49:07.063Z,15.37
2022-11-20T07:51:35.997Z,28.20
2022-11-20T07:54:05.213Z,23.93
2022-11-20T07:56:34.282Z,22.27
2022-11-20T07:59:03.268Z,20.27
2022-11-20T08:01:32.472Z,20.93
2022-11-20T08:04:01.507Z,17.50
2022-11-20T08:06:32.042Z,19.77
2022-11-20T08:09:01.469Z,16.07
2022-11-20T08:11:47.948Z,19.17
2022-11-20T08:14:17.242Z,17.57
2022-11-20T08:16:47.900Z,17.33
2022-11-20T08:19:18.738Z,16.17
2022-11-20T08:21:49.383Z,16.20
2022-11-20T08:24:18.479Z,16.33
2022-11-20T08:26:47.442Z,14.87
2022-11-20T08:29:19.012Z,19.47
2022-11-20T08:31:48.009Z,19.83
2022-11-20T08:34:19.171Z,13.80
2022-11-20T08:36:50.126Z,14.77
2022-11-20T08:39:19.591Z,15.80
2022-11-20T08:41:48.916Z,17.10
2022-11-20T08:44:17.806Z,18.43
2022-11-20T08:46:48.257Z,16.63
2022-11-20T08:49:19.069Z,15.13
2022-11-20T08:51:52.637Z,14.17
2022-11-20T08:54:22.929Z,15.60
2022-11-20T08:56:51.779Z,16.87
2022-11-20T08:59:50.701Z,14.80
2022-11-20T09:02:09.922Z,11.77
2022-11-20T09:04:38.689Z,15.60
2022-11-20T09:07:09.093Z,17.67
2022-11-20T09:09:37.882Z,15.50
2022-11-20T09:12:07.085Z,14.60
2022-11-20T09:14:35.779Z,14.80
2022-11-20T09:17:04.644Z,12.70
2022-11-20T09:19:35.767Z,12.57
2022-11-20T09:22:05.109Z,14.10
2022-11-20T09:24:35.222Z,13.33
2022-11-20T09:27:07.570Z,49.23
2022-11-20T09:29:36.222Z,15.30
2022-11-20T09:32:05.049Z,11.97
2022-11-20T09:34:33.890Z,13.33
2022-11-20T09:37:06.184Z,11.13
2022-11-20T09:42:39.898Z,12.77
2022-11-20T09:45:19.258Z,12.70
2022-11-20T09:48:02.962Z,10.97
2022-11-20T09:50:38.053Z,12.93
2022-11-20T09:53:25.868Z,12.80
2022-11-20T09:55:56.463Z,12.60
2022-11-20T09:58:33.173Z,13.20
2022-11-20T10:01:11.756Z,12.57
2022-11-20T10:03:55.675Z,13.23
2022-11-20T10:06:31.125Z,13.80
2022-11-20T10:09:08.330Z,13.73
2022-11-20T10:11:48.812Z,12.07
2022-11-20T10:14:28.552Z,11.50
2022-11-20T10:17:11.536Z,12.70
2022-11-20T10:19:55.335Z,12.67
2022-11-20T10:22:37.269Z,12.30
2022-11-20T10:25:14.306Z,11.20
2022-11-20T10:27:58.560Z,12.10
2022-11-20T10:30:28.071Z,13.80
2022-11-20T10:33:03.368Z,11.97
2022-11-20T10:35:37.380Z,11.83
2022-11-20T10:38:12.382Z,11.87
2022-11-20T10:40:43.714Z,13.20
2022-11-20T10:43:18.520Z,13.10
2022-11-20T10:45:53.118Z,11.03
2022-11-20T10:48:24.629Z,13.00
2022-11-20T10:51:19.245Z,11.00
2022-11-20T10:53:58.652Z,11.70
2022-11-20T10:56:35.996Z,12.70
2022-11-20T10:59:34.162Z,13.57
2022-11-20T11:02:03.610Z,11.80
2022-11-20T11:04:39.230Z,11.60
2022-11-20T11:07:13.068Z,8.97
2022-11-20T11:09:45.417Z,8.27
2022-11-20T11:12:14.799Z,10.10
2022-11-20T11:14:51.872Z,11.97
2022-11-20T11:17:28.316Z,10.00
2022-11-20T11:20:06.799Z,11.50
2022-11-20T11:22:45.991Z,10.10
2022-11-20T11:25:27.965Z,10.57
2022-11-20T11:27:58.626Z,11.10
2022-11-20T11:30:32.176Z,10.23
2022-11-20T11:33:09.066Z,12.33
2022-11-20T11:35:49.924Z,8.27
2022-11-20T11:38:33.506Z,10.77
2022-11-20T11:41:03.105Z,11.50
2022-11-20T11:43:52.063Z,12.30
2022-11-20T11:46:36.957Z,12.77
2022-11-20T11:49:18.609Z,8.77
2022-11-20T11:52:02.356Z,11.07
2022-11-20T11:54:36.836Z,13.10
2022-11-20T11:57:13.517Z,10.50
2022-11-20T12:00:01.416Z,12.67
2022-11-20T12:02:38.509Z,15.20
2022-11-20T12:05:20.047Z,13.00
2022-11-20T12:07:53.216Z,11.50
2022-11-20T12:10:24.994Z,10.77
2022-11-20T12:12:58.605Z,11.90
2022-11-20T12:15:33.319Z,11.50
2022-11-20T12:18:03.887Z,6.97
2022-11-20T12:20:42.693Z,13.43
2022-11-20T12:23:18.264Z,12.43
2022-11-20T12:25:50.890Z,15.23
2022-11-20T12:28:41.804Z,14.37
2022-11-20T12:31:28.900Z,12.90
2022-11-20T12:34:08.358Z,9.97
2022-11-20T12:36:43.196Z,11.37
2022-11-20T12:39:42.168Z,10.70
2022-11-20T12:42:47.650Z,8.37
2022-11-20T12:45:31.098Z,11.80
2022-11-20T12:48:26.661Z,9.70
2022-11-20T12:51:27.653Z,11.93
2022-11-20T12:54:10.076Z,10.30
2022-11-20T12:56:48.148Z,12.63
2022-11-20T12:59:49.641Z,11.70
2022-11-20T13:02:28.501Z,11.77
2022-11-20T13:05:11.247Z,11.03
2022-11-20T13:07:42.264Z,12.30
2022-11-20T13:10:20.430Z,8.40
2022-11-20T13:12:52.388Z,12.47
2022-11-20T13:15:33.443Z,13.30
2022-11-20T13:18:04.283Z,8.57
2022-11-20T13:20:37.114Z,11.50
2022-11-20T13:23:39.150Z,8.13
2022-11-20T13:26:22.610Z,7.07
2022-11-20T13:29:04.743Z,8.57
2022-11-20T13:31:39.548Z,7.13
2022-11-20T13:34:14.050Z,8.70
2022-11-20T13:36:56.679Z,7.40
2022-11-20T13:39:31.688Z,8.37
2022-11-20T13:42:01.983Z,6.90
2022-11-20T13:44:38.152Z,7.07
2022-11-20T13:47:21.126Z,8.37
2022-11-20T13:50:05.674Z,7.00
2022-11-20T13:52:53.314Z,8.93
2022-11-20T13:55:47.406Z,7.63
2022-11-20T13:58:36.628Z,6.67
2022-11-20T14:01:13.486Z,9.03
2022-11-20T14:04:04.994Z,8.70
2022-11-20T14:06:33.818Z,9.00
2022-11-20T14:09:03.081Z,10.73
2022-11-20T14:11:34.659Z,7.73
2022-11-20T14:14:16.211Z,6.07
2022-11-20T14:16:49.618Z,8.20
2022-11-20T14:19:31.401Z,9.33
2022-11-20T14:22:18.528Z,8.80
2022-11-20T14:24:47.265Z,9.40
2022-11-20T14:27:20.442Z,10.23
2022-11-20T14:29:51.924Z,9.20
2022-11-20T14:32:23.225Z,8.53
2022-11-20T14:34:52.967Z,7.90
2022-11-20T14:38:09.215Z,7.90
2022-11-20T14:40:39.708Z,8.90
2022-11-20T14:43:21.931Z,15.83
2022-11-20T14:45:58.975Z,9.47
2022-11-20T14:48:32.910Z,16.17
2022-11-20T14:51:01.878Z,14.80
2022-11-20T14:53:30.943Z,10.50
2022-11-20T14:56:01.940Z,11.37
2022-11-20T14:58:34.437Z,10.90
2022-11-20T15:01:06.907Z,10.03
2022-11-20T15:03:37.304Z,10.97
2022-11-20T15:06:07.083Z,10.63
2022-11-20T15:08:36.661Z,10.10
2022-11-20T15:11:05.926Z,11.73
2022-11-20T15:13:39.054Z,14.00
2022-11-20T15:16:17.123Z,13.80
2022-11-20T15:18:46.186Z,12.93
2022-11-20T15:21:16.807Z,14.17
2022-11-20T15:23:46.915Z,15.07
2022-11-20T15:26:20.768Z,15.80
2022-11-20T15:28:51.718Z,22.60
2022-11-20T15:31:37.676Z,23.77
2022-11-20T15:34:08.638Z,19.40
2022-11-20T15:36:37.491Z,16.03
2022-11-20T15:39:08.103Z,16.03
2022-11-20T15:41:40.364Z,9.30
2022-11-20T15:44:13.840Z,13.30
2022-11-20T15:46:46.094Z,12.67
2022-11-20T15:49:16.466Z,11.63
2022-11-20T15:51:48.746Z,11.30
2022-11-20T15:54:21.309Z,10.80
2022-11-20T15:56:50.742Z,13.40
2022-11-20T15:59:21.242Z,12.00
2022-11-20T16:01:50.225Z,13.13
2022-11-20T16:04:20.051Z,13.87
2022-11-20T16:06:51.749Z,15.93
2022-11-20T16:09:21.291Z,14.97
2022-11-20T16:11:50.102Z,19.47
2022-11-20T16:14:37.918Z,19.33
2022-11-20T16:17:29.365Z,12.90
2022-11-20T16:19:58.176Z,12.00
2022-11-20T16:22:27.144Z,12.50
2022-11-20T16:24:59.106Z,11.37
2022-11-20T16:27:40.697Z,12.93
2022-11-20T16:30:16.320Z,11.43
2022-11-20T16:32:46.924Z,11.87
2022-11-20T16:38:50.995Z,11.77
2022-11-20T16:41:22.219Z,11.07
2022-11-20T16:44:02.463Z,11.03
2022-11-20T16:46:36.427Z,15.70
2022-11-20T16:49:07.522Z,17.63
2022-11-20T16:51:37.970Z,15.40
2022-11-20T16:54:09.037Z,15.23
2022-11-20T16:56:38.004Z,13.80
2022-11-20T16:59:10.310Z,15.50
2022-11-20T17:01:43.203Z,16.70
2022-11-20T17:04:14.600Z,14.83
2022-11-20T17:06:48.033Z,16.37
2022-11-20T17:09:17.257Z,28.00
2022-11-20T17:11:48.605Z,19.03
2022-11-20T17:14:17.502Z,16.67
2022-11-20T17:16:49.759Z,21.00
2022-11-20T17:19:19.147Z,22.93
2022-11-20T17:21:48.250Z,19.63
2022-11-20T17:24:17.219Z,15.77
2022-11-20T17:26:49.325Z,16.53
2022-11-20T17:29:37.756Z,14.83
2022-11-20T17:32:11.014Z,15.17
2022-11-20T17:34:40.207Z,14.57
2022-11-20T17:37:09.073Z,13.47
2022-11-20T17:39:37.937Z,14.00
2022-11-20T17:42:24.445Z,13.50
2022-11-20T17:44:53.392Z,13.70
2022-11-20T17:47:23.998Z,12.77
2022-11-20T17:49:53.742Z,13.63
2022-11-20T17:52:24.675Z,14.70
2022-11-20T17:54:56.246Z,13.13
2022-11-20T17:57:43.243Z,15.03
2022-11-20T18:00:13.390Z,15.90
2022-11-20T18:02:49.343Z,15.43
2022-11-20T18:05:21.113Z,15.23
2022-11-20T18:07:55.147Z,13.50
2022-11-20T18:10:26.847Z,14.97
2022-11-20T18:12:55.504Z,15.40
2022-11-20T18:15:24.502Z,15.60
2022-11-20T18:17:54.713Z,12.77
2022-11-20T18:20:35.198Z,14.57
2022-11-20T18:23:05.395Z,14.43
2022-11-20T18:25:38.026Z,13.30
2022-11-20T18:28:07.139Z,13.63
2022-11-20T18:30:37.396Z,11.90
2022-11-20T18:33:08.543Z,13.67
2022-11-20T18:35:37.455Z,12.90
2022-11-20T18:38:06.304Z,14.63
2022-11-20T18:40:36.936Z,15.23
2022-11-20T18:43:23.998Z,19.93
2022-11-20T18:45:53.343Z,16.17
2022-11-20T18:48:23.682Z,14.47
2022-11-20T18:50:52.515Z,14.10
2022-11-20T18:53:25.329Z,15.37
2022-11-20T18:56:02.893Z,13.00
2022-11-20T18:58:44.815Z,13.17
2022-11-20T19:01:15.952Z,14.80
2022-11-20T19:03:46.965Z,15.27
2022-11-20T19:06:16.954Z,15.80
2022-11-20T19:08:46.620Z,14.83
2022-11-20T19:11:16.189Z,13.37
2022-11-20T19:13:45.143Z,15.70
2022-11-20T19:16:16.840Z,15.27
2022-11-20T19:18:48.602Z,18.10
2022-11-20T19:21:21.899Z,15.33
2022-11-20T19:23:51.537Z,15.37
2022-11-20T19:26:21.099Z,14.77
2022-11-20T19:28:50.415Z,13.63
2022-11-20T19:31:24.459Z,14.30
2022-11-20T19:33:57.177Z,14.23
2022-11-20T19:36:28.911Z,15.23
2022-11-20T19:38:58.810Z,13.70
2022-11-20T19:41:30.475Z,16.47
2022-11-20T19:43:59.829Z,15.60
2022-11-20T19:46:30.149Z,15.07
2022-11-20T19:49:00.480Z,15.00
2022-11-20T19:51:30.979Z,14.27
2022-11-20T19:54:00.773Z,16.60
2022-11-20T19:56:31.292Z,14.23
2022-11-20T19:59:02.600Z,17.37
2022-11-20T20:01:32.811Z,14.80
2022-11-20T20:04:05.526Z,16.03
2022-11-20T20:06:36.203Z,13.57
2022-11-20T20:09:07.647Z,16.50
2022-11-20T20:11:37.415Z,14.50
2022-11-20T20:14:09.246Z,15.03
2022-11-20T20:16:38.290Z,14.93
2022-11-20T20:19:08.719Z,14.60
2022-11-20T20:21:37.944Z,16.90
2022-11-20T20:24:08.316Z,18.77
2022-11-20T20:26:37.351Z,14.57
2022-11-20T20:29:12.159Z,22.00
2022-11-20T20:31:42.312Z,16.57
2022-11-20T20:34:12.808Z,18.37
2022-11-20T20:36:43.381Z,20.80
2022-11-20T20:39:15.279Z,21.97
2022-11-20T20:41:44.158Z,23.40
2022-11-20T20:44:29.994Z,23.00
2022-11-20T20:46:58.843Z,22.77
2022-11-20T20:49:29.057Z,19.20
2022-11-20T20:51:57.868Z,23.00
2022-11-20T20:54:30.241Z,21.90
2022-11-20T20:57:02.097Z,21.27
2022-11-20T20:59:30.902Z,18.07
2022-11-20T21:01:59.656Z,18.53
2022-11-20T21:04:30.338Z,20.17
2022-11-20T21:07:02.349Z,17.90
2022-11-20T21:09:36.952Z,18.23
2022-11-20T21:12:06.576Z,18.57
2022-11-20T21:14:35.833Z,19.40
2022-11-20T21:17:04.868Z,20.70
2022-11-20T21:19:35.846Z,21.57
2022-11-20T21:22:04.001Z,21.60
2022-11-20T21:24:34.335Z,21.70
2022-11-20T21:27:06.809Z,22.70
2022-11-20T21:29:35.738Z,19.50
2022-11-20T21:32:04.797Z,20.13
2022-11-20T21:34:41.417Z,17.53
2022-11-20T21:37:16.250Z,18.43
2022-11-20T21:39:51.800Z,19.33
2022-11-20T21:42:22.815Z,19.63
2022-11-20T21:44:51.962Z,18.60
2022-11-20T21:47:21.266Z,19.37
2022-11-20T21:49:51.618Z,16.07
2022-11-20T21:52:28.135Z,15.67
2022-11-20T21:54:58.967Z,17.37
2022-11-20T21:57:27.958Z,26.80
2022-11-20T21:59:57.081Z,23.67
2022-11-20T22:02:26.368Z,19.70
2022-11-20T22:04:59.457Z,17.90
2022-11-20T22:07:30.307Z,19.37
2022-11-20T22:09:59.520Z,20.40
2022-11-20T22:12:35.565Z,19.83
2022-11-20T22:15:06.818Z,18.43
2022-11-20T22:17:55.205Z,19.80
2022-11-20T22:20:25.497Z,20.70
2022-11-20T22:22:55.015Z,20.57
2022-11-20T22:25:23.946Z,22.50
2022-11-20T22:27:52.668Z,19.97
2022-11-20T22:30:21.485Z,20.93
2022-11-20T22:32:50.933Z,21.70
2022-11-20T22:35:19.908Z,20.20
2022-11-20T22:37:52.309Z,21.23
2022-11-20T22:40:21.640Z,20.77
2022-11-20T22:42:50.382Z,20.00
2022-11-20T22:45:19.455Z,18.00
2022-11-20T22:47:48.915Z,17.80
2022-11-20T22:50:17.852Z,17.37
2022-11-20T22:52:47.058Z,18.67
2022-11-20T22:55:17.727Z,17.80
2022-11-20T22:57:46.768Z,15.70
2022-11-20T23:00:16.784Z,18.10
2022-11-20T23:02:46.749Z,20.10
2022-11-20T23:05:15.823Z,15.77
2022-11-20T23:07:45.189Z,16.87
2022-11-20T23:10:14.270Z,16.67
2022-11-20T23:12:44.878Z,17.37
2022-11-20T23:15:13.798Z,17.50
2022-11-20T23:17:42.864Z,15.83
2022-11-20T23:20:15.422Z,16.43
2022-11-20T23:22:44.261Z,17.73
2022-11-20T23:25:15.272Z,18.80
2022-11-20T23:27:45.647Z,16.50
2022-11-20T23:30:14.653Z,15.70
2022-11-20T23:32:46.465Z,16.43
2022-11-20T23:35:15.367Z,14.33
2022-11-20T23:37:46.870Z,15.90
2022-11-20T23:40:16.266Z,16.33
2022-11-20T23:43:00.352Z,15.97
2022-11-20T23:45:29.463Z,15.57
2022-11-20T23:47:58.617Z,16.03
2022-11-20T23:50:27.546Z,16.87
2022-11-20T23:52:56.377Z,14.83
2022-11-20T23:55:25.221Z,16.10
2022-11-20T23:57:57.513Z,17.03
